sensor_id;sensor_type;location;lat;lon;timestamp;P1;durP1;ratioP1;P2;durP2;ratioP2
15645;SDS011;7922;43.622;1.476;2024-01-30T00:00:59;11.87;;;5.27;;
15645;SDS011;7922;43.622;1.476;2024-01-30T00:03:24;6.93;;;5.30;;
15645;SDS011;7922;43.622;1.476;2024-01-30T00:05:49;6.43;;;5.23;;
15645;SDS011;7922;43.622;1.476;2024-01-30T00:08:14;9.13;;;4.83;;
15645;SDS011;7922;43.622;1.476;2024-01-30T00:10:40;9.60;;;5.63;;
15645;SDS011;7922;43.622;1.476;2024-01-30T00:13:05;8.27;;;5.30;;
15645;SDS011;7922;43.622;1.476;2024-01-30T00:15:32;8.47;;;5.40;;
15645;SDS011;7922;43.622;1.476;2024-01-30T00:17:58;10.10;;;5.63;;
15645;SDS011;7922;43.622;1.476;2024-01-30T00:20:25;9.57;;;5.63;;
15645;SDS011;7922;43.622;1.476;2024-01-30T00:22:51;9.20;;;5.93;;
15645;SDS011;7922;43.622;1.476;2024-01-30T00:25:16;7.90;;;5.67;;
15645;SDS011;7922;43.622;1.476;2024-01-30T00:27:41;6.33;;;4.97;;
15645;SDS011;7922;43.622;1.476;2024-01-30T00:30:07;8.13;;;5.17;;
15645;SDS011;7922;43.622;1.476;2024-01-30T00:32:32;9.57;;;5.20;;
15645;SDS011;7922;43.622;1.476;2024-01-30T00:34:58;9.27;;;5.73;;
15645;SDS011;7922;43.622;1.476;2024-01-30T00:37:23;9.47;;;5.30;;
15645;SDS011;7922;43.622;1.476;2024-01-30T00:39:48;9.63;;;5.27;;
15645;SDS011;7922;43.622;1.476;2024-01-30T00:42:14;7.40;;;5.30;;
15645;SDS011;7922;43.622;1.476;2024-01-30T00:44:39;10.07;;;5.80;;
15645;SDS011;7922;43.622;1.476;2024-01-30T00:47:05;8.33;;;5.90;;
15645;SDS011;7922;43.622;1.476;2024-01-30T00:49:30;9.90;;;5.60;;
15645;SDS011;7922;43.622;1.476;2024-01-30T00:51:56;8.03;;;5.23;;
15645;SDS011;7922;43.622;1.476;2024-01-30T00:54:21;7.90;;;5.33;;
15645;SDS011;7922;43.622;1.476;2024-01-30T00:56:46;8.93;;;5.83;;
15645;SDS011;7922;43.622;1.476;2024-01-30T00:59:11;10.03;;;5.17;;
15645;SDS011;7922;43.622;1.476;2024-01-30T01:01:37;7.73;;;5.33;;
15645;SDS011;7922;43.622;1.476;2024-01-30T01:04:02;15.13;;;5.47;;
15645;SDS011;7922;43.622;1.476;2024-01-30T01:06:27;9.33;;;5.53;;
15645;SDS011;7922;43.622;1.476;2024-01-30T01:08:53;8.43;;;5.30;;
15645;SDS011;7922;43.622;1.476;2024-01-30T01:11:18;8.40;;;4.73;;
15645;SDS011;7922;43.622;1.476;2024-01-30T01:13:43;9.93;;;5.67;;
15645;SDS011;7922;43.622;1.476;2024-01-30T01:16:09;13.90;;;5.33;;
15645;SDS011;7922;43.622;1.476;2024-01-30T01:18:36;7.83;;;4.80;;
15645;SDS011;7922;43.622;1.476;2024-01-30T01:21:01;5.83;;;4.77;;
15645;SDS011;7922;43.622;1.476;2024-01-30T01:23:27;12.53;;;4.90;;
15645;SDS011;7922;43.622;1.476;2024-01-30T01:25:52;7.67;;;5.67;;
15645;SDS011;7922;43.622;1.476;2024-01-30T01:28:17;9.20;;;4.70;;
15645;SDS011;7922;43.622;1.476;2024-01-30T01:30:43;7.90;;;4.90;;
15645;SDS011;7922;43.622;1.476;2024-01-30T01:33:08;9.87;;;5.70;;
15645;SDS011;7922;43.622;1.476;2024-01-30T01:35:33;5.27;;;4.77;;
15645;SDS011;7922;43.622;1.476;2024-01-30T01:37:58;7.33;;;5.03;;
15645;SDS011;7922;43.622;1.476;2024-01-30T01:40:24;8.53;;;4.83;;
15645;SDS011;7922;43.622;1.476;2024-01-30T01:42:50;11.77;;;5.27;;
15645;SDS011;7922;43.622;1.476;2024-01-30T01:45:16;10.00;;;4.90;;
15645;SDS011;7922;43.622;1.476;2024-01-30T01:47:41;10.33;;;5.43;;
15645;SDS011;7922;43.622;1.476;2024-01-30T01:50:07;7.77;;;4.83;;
15645;SDS011;7922;43.622;1.476;2024-01-30T01:52:33;9.80;;;5.33;;
15645;SDS011;7922;43.622;1.476;2024-01-30T01:54:58;8.00;;;5.10;;
15645;SDS011;7922;43.622;1.476;2024-01-30T01:57:24;7.57;;;4.77;;
15645;SDS011;7922;43.622;1.476;2024-01-30T01:59:49;11.07;;;5.93;;
15645;SDS011;7922;43.622;1.476;2024-01-30T02:02:15;12.80;;;5.10;;
15645;SDS011;7922;43.622;1.476;2024-01-30T02:04:42;9.37;;;4.73;;
15645;SDS011;7922;43.622;1.476;2024-01-30T02:07:08;8.47;;;4.67;;
15645;SDS011;7922;43.622;1.476;2024-01-30T02:09:34;9.40;;;5.23;;
15645;SDS011;7922;43.622;1.476;2024-01-30T02:11:59;8.90;;;4.60;;
15645;SDS011;7922;43.622;1.476;2024-01-30T02:14:24;7.97;;;4.57;;
15645;SDS011;7922;43.622;1.476;2024-01-30T02:16:50;8.23;;;5.23;;
15645;SDS011;7922;43.622;1.476;2024-01-30T02:19:15;7.63;;;4.67;;
15645;SDS011;7922;43.622;1.476;2024-01-30T02:21:40;9.13;;;4.67;;
15645;SDS011;7922;43.622;1.476;2024-01-30T02:24:05;8.00;;;4.70;;
15645;SDS011;7922;43.622;1.476;2024-01-30T02:26:31;8.13;;;4.67;;
15645;SDS011;7922;43.622;1.476;2024-01-30T02:28:56;7.43;;;4.70;;
15645;SDS011;7922;43.622;1.476;2024-01-30T02:31:21;8.83;;;5.03;;
15645;SDS011;7922;43.622;1.476;2024-01-30T02:33:46;10.93;;;4.57;;
15645;SDS011;7922;43.622;1.476;2024-01-30T02:36:12;8.30;;;4.20;;
15645;SDS011;7922;43.622;1.476;2024-01-30T02:38:37;8.57;;;4.83;;
15645;SDS011;7922;43.622;1.476;2024-01-30T02:41:02;11.93;;;4.77;;
15645;SDS011;7922;43.622;1.476;2024-01-30T02:43:28;10.63;;;4.90;;
15645;SDS011;7922;43.622;1.476;2024-01-30T02:45:53;7.03;;;4.50;;
15645;SDS011;7922;43.622;1.476;2024-01-30T02:48:18;9.30;;;4.43;;
15645;SDS011;7922;43.622;1.476;2024-01-30T02:50:43;13.70;;;4.80;;
15645;SDS011;7922;43.622;1.476;2024-01-30T02:53:09;12.83;;;4.83;;
15645;SDS011;7922;43.622;1.476;2024-01-30T02:55:34;8.80;;;4.80;;
15645;SDS011;7922;43.622;1.476;2024-01-30T02:57:59;11.57;;;4.83;;
15645;SDS011;7922;43.622;1.476;2024-01-30T03:00:25;9.23;;;4.00;;
15645;SDS011;7922;43.622;1.476;2024-01-30T03:02:50;9.23;;;4.80;;
15645;SDS011;7922;43.622;1.476;2024-01-30T03:05:15;7.70;;;4.50;;
15645;SDS011;7922;43.622;1.476;2024-01-30T03:07:40;12.47;;;4.67;;
15645;SDS011;7922;43.622;1.476;2024-01-30T03:10:06;10.53;;;4.40;;
15645;SDS011;7922;43.622;1.476;2024-01-30T03:12:32;14.10;;;5.20;;
15645;SDS011;7922;43.622;1.476;2024-01-30T03:14:57;6.10;;;4.33;;
15645;SDS011;7922;43.622;1.476;2024-01-30T03:17:23;10.63;;;5.00;;
15645;SDS011;7922;43.622;1.476;2024-01-30T03:19:48;6.50;;;4.80;;
15645;SDS011;7922;43.622;1.476;2024-01-30T03:22:13;11.70;;;5.33;;
15645;SDS011;7922;43.622;1.476;2024-01-30T03:24:38;10.53;;;4.27;;
15645;SDS011;7922;43.622;1.476;2024-01-30T03:27:04;8.77;;;4.47;;
15645;SDS011;7922;43.622;1.476;2024-01-30T03:29:29;10.50;;;4.13;;
15645;SDS011;7922;43.622;1.476;2024-01-30T03:31:54;9.47;;;4.47;;
15645;SDS011;7922;43.622;1.476;2024-01-30T03:34:19;11.33;;;5.53;;
15645;SDS011;7922;43.622;1.476;2024-01-30T03:36:45;8.93;;;4.70;;
15645;SDS011;7922;43.622;1.476;2024-01-30T03:39:10;11.93;;;4.20;;
15645;SDS011;7922;43.622;1.476;2024-01-30T03:41:35;9.37;;;5.77;;
15645;SDS011;7922;43.622;1.476;2024-01-30T03:44:00;7.70;;;4.53;;
15645;SDS011;7922;43.622;1.476;2024-01-30T03:46:26;9.37;;;4.47;;
15645;SDS011;7922;43.622;1.476;2024-01-30T03:48:51;9.13;;;4.50;;
15645;SDS011;7922;43.622;1.476;2024-01-30T03:51:16;8.73;;;4.90;;
15645;SDS011;7922;43.622;1.476;2024-01-30T03:53:42;11.90;;;4.47;;
15645;SDS011;7922;43.622;1.476;2024-01-30T03:56:07;9.07;;;4.40;;
15645;SDS011;7922;43.622;1.476;2024-01-30T03:58:33;6.83;;;4.33;;
15645;SDS011;7922;43.622;1.476;2024-01-30T04:00:58;9.80;;;5.07;;
15645;SDS011;7922;43.622;1.476;2024-01-30T04:03:24;13.83;;;4.60;;
15645;SDS011;7922;43.622;1.476;2024-01-30T04:05:49;9.60;;;5.03;;
15645;SDS011;7922;43.622;1.476;2024-01-30T04:08:16;7.63;;;4.43;;
15645;SDS011;7922;43.622;1.476;2024-01-30T04:10:41;10.37;;;4.63;;
15645;SDS011;7922;43.622;1.476;2024-01-30T04:13:06;7.27;;;4.73;;
15645;SDS011;7922;43.622;1.476;2024-01-30T04:15:31;8.43;;;4.40;;
15645;SDS011;7922;43.622;1.476;2024-01-30T04:17:57;12.07;;;4.63;;
15645;SDS011;7922;43.622;1.476;2024-01-30T04:20:23;12.50;;;4.80;;
15645;SDS011;7922;43.622;1.476;2024-01-30T04:22:48;10.13;;;4.80;;
15645;SDS011;7922;43.622;1.476;2024-01-30T04:25:14;6.40;;;4.37;;
15645;SDS011;7922;43.622;1.476;2024-01-30T04:27:39;10.43;;;4.37;;
15645;SDS011;7922;43.622;1.476;2024-01-30T04:30:04;12.00;;;4.67;;
15645;SDS011;7922;43.622;1.476;2024-01-30T04:32:30;11.23;;;4.53;;
15645;SDS011;7922;43.622;1.476;2024-01-30T04:34:56;7.63;;;4.17;;
15645;SDS011;7922;43.622;1.476;2024-01-30T04:37:21;9.07;;;4.50;;
15645;SDS011;7922;43.622;1.476;2024-01-30T04:39:47;9.67;;;4.93;;
15645;SDS011;7922;43.622;1.476;2024-01-30T04:42:12;10.73;;;4.27;;
15645;SDS011;7922;43.622;1.476;2024-01-30T04:44:37;8.07;;;4.70;;
15645;SDS011;7922;43.622;1.476;2024-01-30T04:47:03;9.73;;;4.47;;
15645;SDS011;7922;43.622;1.476;2024-01-30T04:49:28;7.47;;;4.97;;
15645;SDS011;7922;43.622;1.476;2024-01-30T04:51:53;9.77;;;6.07;;
15645;SDS011;7922;43.622;1.476;2024-01-30T04:54:19;10.83;;;6.50;;
15645;SDS011;7922;43.622;1.476;2024-01-30T04:56:44;12.97;;;8.40;;
15645;SDS011;7922;43.622;1.476;2024-01-30T04:59:09;10.70;;;6.83;;
15645;SDS011;7922;43.622;1.476;2024-01-30T05:01:34;9.57;;;6.87;;
15645;SDS011;7922;43.622;1.476;2024-01-30T05:04:00;7.93;;;6.00;;
15645;SDS011;7922;43.622;1.476;2024-01-30T05:06:25;9.37;;;6.70;;
15645;SDS011;7922;43.622;1.476;2024-01-30T05:08:51;9.60;;;6.50;;
15645;SDS011;7922;43.622;1.476;2024-01-30T05:11:16;10.37;;;7.20;;
15645;SDS011;7922;43.622;1.476;2024-01-30T05:13:42;16.60;;;8.23;;
15645;SDS011;7922;43.622;1.476;2024-01-30T05:16:07;15.37;;;8.17;;
15645;SDS011;7922;43.622;1.476;2024-01-30T05:18:32;10.60;;;7.67;;
15645;SDS011;7922;43.622;1.476;2024-01-30T05:20:58;13.10;;;8.97;;
15645;SDS011;7922;43.622;1.476;2024-01-30T05:23:23;9.23;;;8.20;;
15645;SDS011;7922;43.622;1.476;2024-01-30T05:25:48;11.87;;;7.60;;
15645;SDS011;7922;43.622;1.476;2024-01-30T05:28:13;10.43;;;7.13;;
15645;SDS011;7922;43.622;1.476;2024-01-30T05:30:39;9.50;;;7.10;;
15645;SDS011;7922;43.622;1.476;2024-01-30T05:33:04;7.80;;;6.57;;
15645;SDS011;7922;43.622;1.476;2024-01-30T05:35:29;8.73;;;6.83;;
15645;SDS011;7922;43.622;1.476;2024-01-30T05:37:54;9.43;;;7.50;;
15645;SDS011;7922;43.622;1.476;2024-01-30T05:40:20;9.70;;;7.10;;
15645;SDS011;7922;43.622;1.476;2024-01-30T05:42:45;10.83;;;7.63;;
15645;SDS011;7922;43.622;1.476;2024-01-30T05:45:10;8.93;;;7.37;;
15645;SDS011;7922;43.622;1.476;2024-01-30T05:47:36;7.93;;;6.30;;
15645;SDS011;7922;43.622;1.476;2024-01-30T05:50:01;12.67;;;7.63;;
15645;SDS011;7922;43.622;1.476;2024-01-30T05:52:26;10.70;;;7.17;;
15645;SDS011;7922;43.622;1.476;2024-01-30T05:54:51;8.27;;;6.77;;
15645;SDS011;7922;43.622;1.476;2024-01-30T05:57:17;8.87;;;6.80;;
15645;SDS011;7922;43.622;1.476;2024-01-30T05:59:42;9.57;;;6.80;;
15645;SDS011;7922;43.622;1.476;2024-01-30T06:02:08;10.00;;;7.10;;
15645;SDS011;7922;43.622;1.476;2024-01-30T06:04:35;12.07;;;7.17;;
15645;SDS011;7922;43.622;1.476;2024-01-30T06:07:00;8.50;;;6.77;;
15645;SDS011;7922;43.622;1.476;2024-01-30T06:09:26;11.27;;;6.77;;
15645;SDS011;7922;43.622;1.476;2024-01-30T06:11:51;9.20;;;6.83;;
15645;SDS011;7922;43.622;1.476;2024-01-30T06:14:16;7.87;;;7.07;;
15645;SDS011;7922;43.622;1.476;2024-01-30T06:16:41;8.20;;;6.77;;
15645;SDS011;7922;43.622;1.476;2024-01-30T06:19:07;10.77;;;7.03;;
15645;SDS011;7922;43.622;1.476;2024-01-30T06:21:32;10.37;;;7.40;;
15645;SDS011;7922;43.622;1.476;2024-01-30T06:23:57;12.40;;;7.80;;
15645;SDS011;7922;43.622;1.476;2024-01-30T06:26:23;9.83;;;7.10;;
15645;SDS011;7922;43.622;1.476;2024-01-30T06:28:48;8.67;;;7.77;;
15645;SDS011;7922;43.622;1.476;2024-01-30T06:31:13;10.67;;;8.00;;
15645;SDS011;7922;43.622;1.476;2024-01-30T06:33:38;11.27;;;7.73;;
15645;SDS011;7922;43.622;1.476;2024-01-30T06:36:04;11.07;;;7.60;;
15645;SDS011;7922;43.622;1.476;2024-01-30T06:38:29;12.70;;;8.07;;
15645;SDS011;7922;43.622;1.476;2024-01-30T06:40:54;12.27;;;7.57;;
15645;SDS011;7922;43.622;1.476;2024-01-30T06:43:20;15.40;;;8.07;;
15645;SDS011;7922;43.622;1.476;2024-01-30T06:45:45;9.93;;;8.20;;
15645;SDS011;7922;43.622;1.476;2024-01-30T06:48:10;13.17;;;7.33;;
15645;SDS011;7922;43.622;1.476;2024-01-30T06:50:35;12.80;;;7.80;;
15645;SDS011;7922;43.622;1.476;2024-01-30T06:53:01;11.67;;;7.70;;
15645;SDS011;7922;43.622;1.476;2024-01-30T06:55:26;13.97;;;7.67;;
15645;SDS011;7922;43.622;1.476;2024-01-30T06:57:51;9.87;;;6.97;;
15645;SDS011;7922;43.622;1.476;2024-01-30T07:00:16;11.97;;;7.53;;
15645;SDS011;7922;43.622;1.476;2024-01-30T07:02:42;9.73;;;7.00;;
15645;SDS011;7922;43.622;1.476;2024-01-30T07:05:07;11.77;;;7.67;;
15645;SDS011;7922;43.622;1.476;2024-01-30T07:07:33;16.43;;;7.20;;
15645;SDS011;7922;43.622;1.476;2024-01-30T07:09:58;11.23;;;7.77;;
15645;SDS011;7922;43.622;1.476;2024-01-30T07:12:23;10.97;;;7.40;;
15645;SDS011;7922;43.622;1.476;2024-01-30T07:14:49;12.83;;;7.90;;
15645;SDS011;7922;43.622;1.476;2024-01-30T07:17:15;10.40;;;6.73;;
15645;SDS011;7922;43.622;1.476;2024-01-30T07:19:40;10.93;;;6.87;;
15645;SDS011;7922;43.622;1.476;2024-01-30T07:22:05;9.20;;;7.40;;
15645;SDS011;7922;43.622;1.476;2024-01-30T07:24:30;10.93;;;7.57;;
15645;SDS011;7922;43.622;1.476;2024-01-30T07:26:56;9.73;;;6.37;;
15645;SDS011;7922;43.622;1.476;2024-01-30T07:29:21;12.43;;;7.30;;
15645;SDS011;7922;43.622;1.476;2024-01-30T07:31:46;9.30;;;7.27;;
15645;SDS011;7922;43.622;1.476;2024-01-30T07:34:11;9.60;;;7.20;;
15645;SDS011;7922;43.622;1.476;2024-01-30T07:36:37;9.53;;;6.87;;
15645;SDS011;7922;43.622;1.476;2024-01-30T07:39:02;10.33;;;6.83;;
15645;SDS011;7922;43.622;1.476;2024-01-30T07:41:27;11.33;;;7.10;;
15645;SDS011;7922;43.622;1.476;2024-01-30T07:43:53;11.23;;;6.80;;
15645;SDS011;7922;43.622;1.476;2024-01-30T07:46:18;13.70;;;6.67;;
15645;SDS011;7922;43.622;1.476;2024-01-30T07:48:43;13.40;;;7.30;;
15645;SDS011;7922;43.622;1.476;2024-01-30T07:51:08;9.73;;;6.77;;
15645;SDS011;7922;43.622;1.476;2024-01-30T07:53:34;9.63;;;6.70;;
15645;SDS011;7922;43.622;1.476;2024-01-30T07:55:59;12.70;;;6.50;;
15645;SDS011;7922;43.622;1.476;2024-01-30T07:58:24;13.23;;;7.13;;
15645;SDS011;7922;43.622;1.476;2024-01-30T08:00:49;12.03;;;7.37;;
15645;SDS011;7922;43.622;1.476;2024-01-30T08:03:15;19.23;;;7.53;;
15645;SDS011;7922;43.622;1.476;2024-01-30T08:05:40;7.83;;;6.57;;
15645;SDS011;7922;43.622;1.476;2024-01-30T08:08:05;9.30;;;6.90;;
15645;SDS011;7922;43.622;1.476;2024-01-30T08:10:31;13.00;;;7.30;;
15645;SDS011;7922;43.622;1.476;2024-01-30T08:12:56;14.30;;;7.53;;
15645;SDS011;7922;43.622;1.476;2024-01-30T08:15:21;12.60;;;7.20;;
15645;SDS011;7922;43.622;1.476;2024-01-30T08:17:47;14.33;;;7.53;;
15645;SDS011;7922;43.622;1.476;2024-01-30T08:20:12;14.23;;;6.97;;
15645;SDS011;7922;43.622;1.476;2024-01-30T08:22:38;16.67;;;7.07;;
15645;SDS011;7922;43.622;1.476;2024-01-30T08:25:03;18.23;;;7.60;;
15645;SDS011;7922;43.622;1.476;2024-01-30T08:27:29;11.87;;;7.07;;
15645;SDS011;7922;43.622;1.476;2024-01-30T08:29:54;13.43;;;6.77;;
15645;SDS011;7922;43.622;1.476;2024-01-30T08:32:20;10.90;;;6.47;;
15645;SDS011;7922;43.622;1.476;2024-01-30T08:34:45;10.17;;;5.73;;
15645;SDS011;7922;43.622;1.476;2024-01-30T08:37:10;14.60;;;6.10;;
15645;SDS011;7922;43.622;1.476;2024-01-30T08:39:36;10.43;;;5.83;;
15645;SDS011;7922;43.622;1.476;2024-01-30T08:42:01;10.93;;;5.10;;
15645;SDS011;7922;43.622;1.476;2024-01-30T08:44:26;7.67;;;4.70;;
15645;SDS011;7922;43.622;1.476;2024-01-30T08:46:51;9.80;;;4.40;;
15645;SDS011;7922;43.622;1.476;2024-01-30T08:49:17;14.90;;;5.00;;
15645;SDS011;7922;43.622;1.476;2024-01-30T08:51:42;10.57;;;4.70;;
15645;SDS011;7922;43.622;1.476;2024-01-30T08:54:07;10.20;;;4.50;;
15645;SDS011;7922;43.622;1.476;2024-01-30T08:56:32;10.47;;;4.47;;
15645;SDS011;7922;43.622;1.476;2024-01-30T08:58:58;11.07;;;4.50;;
15645;SDS011;7922;43.622;1.476;2024-01-30T09:01:23;10.20;;;4.33;;
15645;SDS011;7922;43.622;1.476;2024-01-30T09:03:50;11.67;;;3.80;;
15645;SDS011;7922;43.622;1.476;2024-01-30T09:06:15;9.90;;;4.27;;
15645;SDS011;7922;43.622;1.476;2024-01-30T09:08:40;10.53;;;3.67;;
15645;SDS011;7922;43.622;1.476;2024-01-30T09:11:12;10.40;;;4.20;;
15645;SDS011;7922;43.622;1.476;2024-01-30T09:13:38;9.30;;;4.40;;
15645;SDS011;7922;43.622;1.476;2024-01-30T09:16:04;9.90;;;3.53;;
15645;SDS011;7922;43.622;1.476;2024-01-30T09:18:29;10.30;;;3.80;;
15645;SDS011;7922;43.622;1.476;2024-01-30T09:20:55;9.00;;;4.03;;
15645;SDS011;7922;43.622;1.476;2024-01-30T09:23:20;11.87;;;3.60;;
15645;SDS011;7922;43.622;1.476;2024-01-30T09:25:45;11.03;;;3.80;;
15645;SDS011;7922;43.622;1.476;2024-01-30T09:28:10;9.63;;;3.67;;
15645;SDS011;7922;43.622;1.476;2024-01-30T09:30:36;6.73;;;3.47;;
15645;SDS011;7922;43.622;1.476;2024-01-30T09:33:01;7.57;;;3.27;;
15645;SDS011;7922;43.622;1.476;2024-01-30T09:35:27;7.97;;;3.40;;
15645;SDS011;7922;43.622;1.476;2024-01-30T09:37:52;8.17;;;3.87;;
15645;SDS011;7922;43.622;1.476;2024-01-30T09:40:17;8.10;;;3.93;;
15645;SDS011;7922;43.622;1.476;2024-01-30T09:42:43;8.27;;;3.60;;
15645;SDS011;7922;43.622;1.476;2024-01-30T09:45:11;8.73;;;3.77;;
15645;SDS011;7922;43.622;1.476;2024-01-30T09:47:42;9.47;;;3.70;;
15645;SDS011;7922;43.622;1.476;2024-01-30T09:50:09;9.23;;;3.60;;
15645;SDS011;7922;43.622;1.476;2024-01-30T09:52:39;7.50;;;3.63;;
15645;SDS011;7922;43.622;1.476;2024-01-30T09:55:05;7.53;;;3.87;;
15645;SDS011;7922;43.622;1.476;2024-01-30T09:57:31;12.07;;;3.50;;
15645;SDS011;7922;43.622;1.476;2024-01-30T09:59:56;10.43;;;4.20;;
15645;SDS011;7922;43.622;1.476;2024-01-30T10:02:22;10.50;;;3.50;;
15645;SDS011;7922;43.622;1.476;2024-01-30T10:04:48;10.33;;;4.10;;
15645;SDS011;7922;43.622;1.476;2024-01-30T10:07:14;5.73;;;3.47;;
15645;SDS011;7922;43.622;1.476;2024-01-30T10:09:40;9.73;;;3.70;;
15645;SDS011;7922;43.622;1.476;2024-01-30T10:12:05;7.20;;;3.40;;
15645;SDS011;7922;43.622;1.476;2024-01-30T10:14:31;7.07;;;3.20;;
15645;SDS011;7922;43.622;1.476;2024-01-30T10:17:01;5.53;;;3.30;;
15645;SDS011;7922;43.622;1.476;2024-01-30T10:19:26;8.43;;;3.23;;
15645;SDS011;7922;43.622;1.476;2024-01-30T10:21:51;8.57;;;3.50;;
15645;SDS011;7922;43.622;1.476;2024-01-30T10:24:17;7.87;;;3.60;;
15645;SDS011;7922;43.622;1.476;2024-01-30T10:26:45;7.53;;;3.80;;
15645;SDS011;7922;43.622;1.476;2024-01-30T10:29:10;10.50;;;3.97;;
15645;SDS011;7922;43.622;1.476;2024-01-30T10:31:35;7.17;;;3.40;;
15645;SDS011;7922;43.622;1.476;2024-01-30T10:34:01;7.13;;;3.63;;
15645;SDS011;7922;43.622;1.476;2024-01-30T10:36:28;9.97;;;4.17;;
15645;SDS011;7922;43.622;1.476;2024-01-30T10:38:54;11.90;;;4.00;;
15645;SDS011;7922;43.622;1.476;2024-01-30T10:41:22;11.67;;;4.03;;
15645;SDS011;7922;43.622;1.476;2024-01-30T10:44:00;11.17;;;4.03;;
15645;SDS011;7922;43.622;1.476;2024-01-30T10:46:31;7.23;;;3.40;;
15645;SDS011;7922;43.622;1.476;2024-01-30T10:48:57;9.60;;;3.73;;
15645;SDS011;7922;43.622;1.476;2024-01-30T10:51:23;7.20;;;4.03;;
15645;SDS011;7922;43.622;1.476;2024-01-30T10:53:51;9.00;;;3.53;;
15645;SDS011;7922;43.622;1.476;2024-01-30T10:56:17;7.73;;;3.30;;
15645;SDS011;7922;43.622;1.476;2024-01-30T10:58:44;6.70;;;3.77;;
15645;SDS011;7922;43.622;1.476;2024-01-30T11:01:10;8.37;;;3.53;;
15645;SDS011;7922;43.622;1.476;2024-01-30T11:03:36;8.87;;;3.77;;
15645;SDS011;7922;43.622;1.476;2024-01-30T11:06:02;9.17;;;3.30;;
15645;SDS011;7922;43.622;1.476;2024-01-30T11:08:28;9.93;;;3.50;;
15645;SDS011;7922;43.622;1.476;2024-01-30T11:10:57;6.47;;;3.23;;
15645;SDS011;7922;43.622;1.476;2024-01-30T11:13:26;6.90;;;3.07;;
15645;SDS011;7922;43.622;1.476;2024-01-30T11:15:55;8.43;;;3.90;;
15645;SDS011;7922;43.622;1.476;2024-01-30T11:18:24;6.73;;;3.53;;
15645;SDS011;7922;43.622;1.476;2024-01-30T11:20:50;6.17;;;3.10;;
15645;SDS011;7922;43.622;1.476;2024-01-30T11:23:15;8.03;;;3.90;;
15645;SDS011;7922;43.622;1.476;2024-01-30T11:25:40;6.47;;;3.10;;
15645;SDS011;7922;43.622;1.476;2024-01-30T11:28:12;8.13;;;3.57;;
15645;SDS011;7922;43.622;1.476;2024-01-30T11:30:39;8.40;;;3.83;;
15645;SDS011;7922;43.622;1.476;2024-01-30T11:33:08;7.10;;;3.17;;
15645;SDS011;7922;43.622;1.476;2024-01-30T11:35:35;8.40;;;3.63;;
15645;SDS011;7922;43.622;1.476;2024-01-30T11:38:02;7.17;;;3.20;;
15645;SDS011;7922;43.622;1.476;2024-01-30T11:40:28;5.93;;;3.20;;
15645;SDS011;7922;43.622;1.476;2024-01-30T11:42:55;10.37;;;3.40;;
15645;SDS011;7922;43.622;1.476;2024-01-30T11:45:20;9.53;;;3.40;;
15645;SDS011;7922;43.622;1.476;2024-01-30T11:47:46;5.67;;;3.07;;
15645;SDS011;7922;43.622;1.476;2024-01-30T11:50:11;7.10;;;2.73;;
15645;SDS011;7922;43.622;1.476;2024-01-30T11:52:37;8.40;;;3.83;;
15645;SDS011;7922;43.622;1.476;2024-01-30T11:55:03;7.37;;;3.07;;
15645;SDS011;7922;43.622;1.476;2024-01-30T11:57:29;6.83;;;3.20;;
15645;SDS011;7922;43.622;1.476;2024-01-30T11:59:56;9.47;;;2.70;;
15645;SDS011;7922;43.622;1.476;2024-01-30T12:02:21;5.83;;;2.77;;
15645;SDS011;7922;43.622;1.476;2024-01-30T12:04:47;4.83;;;2.70;;
15645;SDS011;7922;43.622;1.476;2024-01-30T12:07:12;5.83;;;2.70;;
15645;SDS011;7922;43.622;1.476;2024-01-30T12:09:38;7.83;;;2.80;;
15645;SDS011;7922;43.622;1.476;2024-01-30T12:12:03;6.50;;;2.73;;
15645;SDS011;7922;43.622;1.476;2024-01-30T12:14:29;8.17;;;2.90;;
15645;SDS011;7922;43.622;1.476;2024-01-30T12:16:54;7.93;;;3.50;;
15645;SDS011;7922;43.622;1.476;2024-01-30T12:19:23;4.33;;;2.57;;
15645;SDS011;7922;43.622;1.476;2024-01-30T12:21:53;7.77;;;2.90;;
15645;SDS011;7922;43.622;1.476;2024-01-30T12:24:22;7.23;;;2.67;;
15645;SDS011;7922;43.622;1.476;2024-01-30T12:26:48;5.33;;;2.73;;
15645;SDS011;7922;43.622;1.476;2024-01-30T12:29:14;6.13;;;2.90;;
15645;SDS011;7922;43.622;1.476;2024-01-30T12:31:41;6.93;;;2.77;;
15645;SDS011;7922;43.622;1.476;2024-01-30T12:34:07;9.07;;;2.97;;
15645;SDS011;7922;43.622;1.476;2024-01-30T12:36:33;4.13;;;2.70;;
15645;SDS011;7922;43.622;1.476;2024-01-30T12:39:01;8.60;;;2.90;;
15645;SDS011;7922;43.622;1.476;2024-01-30T12:41:27;6.27;;;3.20;;
15645;SDS011;7922;43.622;1.476;2024-01-30T12:43:52;9.20;;;2.97;;
15645;SDS011;7922;43.622;1.476;2024-01-30T12:46:17;6.17;;;2.93;;
15645;SDS011;7922;43.622;1.476;2024-01-30T12:48:43;6.33;;;2.80;;
15645;SDS011;7922;43.622;1.476;2024-01-30T12:51:08;7.40;;;3.57;;
15645;SDS011;7922;43.622;1.476;2024-01-30T12:53:33;5.80;;;2.70;;
15645;SDS011;7922;43.622;1.476;2024-01-30T12:55:59;4.63;;;2.50;;
15645;SDS011;7922;43.622;1.476;2024-01-30T12:58:24;5.70;;;2.90;;
15645;SDS011;7922;43.622;1.476;2024-01-30T13:00:49;8.47;;;2.90;;
15645;SDS011;7922;43.622;1.476;2024-01-30T13:03:14;6.30;;;2.63;;
15645;SDS011;7922;43.622;1.476;2024-01-30T13:05:40;5.37;;;3.30;;
15645;SDS011;7922;43.622;1.476;2024-01-30T13:08:05;6.43;;;2.60;;
15645;SDS011;7922;43.622;1.476;2024-01-30T13:10:31;7.60;;;2.80;;
15645;SDS011;7922;43.622;1.476;2024-01-30T13:12:56;7.90;;;2.90;;
15645;SDS011;7922;43.622;1.476;2024-01-30T13:15:21;7.53;;;2.97;;
15645;SDS011;7922;43.622;1.476;2024-01-30T13:17:47;4.67;;;2.83;;
15645;SDS011;7922;43.622;1.476;2024-01-30T13:20:12;8.23;;;2.97;;
15645;SDS011;7922;43.622;1.476;2024-01-30T13:22:38;5.37;;;3.00;;
15645;SDS011;7922;43.622;1.476;2024-01-30T13:25:03;9.07;;;3.00;;
15645;SDS011;7922;43.622;1.476;2024-01-30T13:27:29;8.37;;;3.20;;
15645;SDS011;7922;43.622;1.476;2024-01-30T13:29:54;7.83;;;3.17;;
15645;SDS011;7922;43.622;1.476;2024-01-30T13:32:19;4.90;;;2.90;;
15645;SDS011;7922;43.622;1.476;2024-01-30T13:34:45;7.50;;;2.73;;
15645;SDS011;7922;43.622;1.476;2024-01-30T13:37:10;3.50;;;3.03;;
15645;SDS011;7922;43.622;1.476;2024-01-30T13:39:35;5.30;;;2.50;;
15645;SDS011;7922;43.622;1.476;2024-01-30T13:42:01;4.67;;;2.80;;
15645;SDS011;7922;43.622;1.476;2024-01-30T13:44:26;6.07;;;2.53;;
15645;SDS011;7922;43.622;1.476;2024-01-30T13:46:51;6.73;;;3.30;;
15645;SDS011;7922;43.622;1.476;2024-01-30T13:49:16;6.37;;;2.47;;
15645;SDS011;7922;43.622;1.476;2024-01-30T13:51:42;6.87;;;3.00;;
15645;SDS011;7922;43.622;1.476;2024-01-30T13:54:07;7.03;;;2.80;;
15645;SDS011;7922;43.622;1.476;2024-01-30T13:56:32;4.23;;;3.03;;
15645;SDS011;7922;43.622;1.476;2024-01-30T13:58:57;6.00;;;2.87;;
15645;SDS011;7922;43.622;1.476;2024-01-30T14:01:23;4.40;;;2.53;;
15645;SDS011;7922;43.622;1.476;2024-01-30T14:03:48;7.87;;;3.00;;
15645;SDS011;7922;43.622;1.476;2024-01-30T14:06:13;8.63;;;3.30;;
15645;SDS011;7922;43.622;1.476;2024-01-30T14:08:39;6.90;;;3.10;;
15645;SDS011;7922;43.622;1.476;2024-01-30T14:11:04;8.03;;;3.40;;
15645;SDS011;7922;43.622;1.476;2024-01-30T14:13:29;8.40;;;3.00;;
15645;SDS011;7922;43.622;1.476;2024-01-30T14:15:58;5.57;;;3.37;;
15645;SDS011;7922;43.622;1.476;2024-01-30T14:18:23;6.90;;;3.27;;
15645;SDS011;7922;43.622;1.476;2024-01-30T14:20:48;10.37;;;2.80;;
15645;SDS011;7922;43.622;1.476;2024-01-30T14:23:14;4.67;;;2.70;;
15645;SDS011;7922;43.622;1.476;2024-01-30T14:25:43;7.47;;;3.00;;
15645;SDS011;7922;43.622;1.476;2024-01-30T14:28:08;5.13;;;2.60;;
15645;SDS011;7922;43.622;1.476;2024-01-30T14:30:34;3.63;;;2.40;;
15645;SDS011;7922;43.622;1.476;2024-01-30T14:33:02;5.87;;;3.03;;
15645;SDS011;7922;43.622;1.476;2024-01-30T14:35:27;5.73;;;2.90;;
15645;SDS011;7922;43.622;1.476;2024-01-30T14:37:52;7.17;;;2.83;;
15645;SDS011;7922;43.622;1.476;2024-01-30T14:40:18;7.03;;;2.63;;
15645;SDS011;7922;43.622;1.476;2024-01-30T14:42:43;8.47;;;3.07;;
15645;SDS011;7922;43.622;1.476;2024-01-30T14:45:08;9.03;;;2.70;;
15645;SDS011;7922;43.622;1.476;2024-01-30T14:47:34;7.77;;;2.90;;